Robert E. Mcallister — WDC8669 — position and weather

sailwx.info

Track history (hours):
 
Tides and Currents Weather Stations Pressure Air Temp Water Temp Dewpoint Dewpoint Depression Visibility Wind Speed Wind Dir Waves Ship Positions

Robert E. Mcallister

Owner: McAllister Towing & Transportation, Staten Island, NY. More information available from US FCC via Universal Licensing System and Coast Guard Vessel Documentation Center.

Last reported at 2017-May-23 17:00 UTC. Time now 2017-May-23 17:04 UTC.
Position N 39°54' W 075°12'.

Length 34 m; draft 4.3 m.

Type: Tug. MMSI: 367091120.

Date/timePositionNaut miles runAvg speedWind from/ knotsBaromVisibWave heightAir tempDewpointWater temp
2017-May-23 17:00N 39°54' W 075°12'0 0.0
2017-May-23 16:30N 39°54' W 075°12'0 0.0
2017-May-23 16:01N 39°54' W 075°12'0 0.0
2017-May-23 15:31N 39°54' W 075°12'0 0.0
2017-May-23 15:00N 39°54' W 075°12'0 0.0
2017-May-23 14:31N 39°54' W 075°12'0 0.0
2017-May-23 13:30N 39°54' W 075°12'0 0.0
2017-May-23 13:00N 39°54' W 075°12'0 0.0
2017-May-23 12:30N 39°54' W 075°12'0 0.0
2017-May-23 12:00N 39°54' W 075°12'0 0.0
2017-May-23 11:30N 39°54' W 075°12'1 1.7
2017-May-23 11:00N 39°53' W 075°12'4 8.3
2017-May-23 10:31N 39°51' W 075°17'3 5.7
2017-May-23 10:00N 39°51' W 075°20'0 0.3
2017-May-23 09:31N 39°51' W 075°20'1 2.5
2017-May-23 09:00N 39°50' W 075°22'2 3.4
2017-May-23 08:30N 39°49' W 075°23'3 5.9
2017-May-23 08:00N 39°51' W 075°20'3 5.4
2017-May-23 07:31N 39°51' W 075°17'4 7.6
2017-May-23 07:01N 39°53' W 075°12'1 2.6
2017-May-23 06:30N 39°54' W 075°12'0 0.0
2017-May-23 06:00N 39°54' W 075°12'0 0.0
2017-May-23 05:30N 39°54' W 075°12'0 0.0
2017-May-23 05:00N 39°54' W 075°12'0 0.0
2017-May-23 04:31N 39°54' W 075°12'0 0.0
2017-May-23 04:01N 39°54' W 075°12'0 0.0
2017-May-23 03:31N 39°54' W 075°12'0 0.0
2017-May-23 03:01N 39°54' W 075°12'0 0.0
2017-May-23 02:30N 39°54' W 075°12'0 0.0
2017-May-23 02:01N 39°54' W 075°12'0 0.0
2017-May-23 01:30N 39°54' W 075°12'0 0.0
2017-May-23 01:01N 39°54' W 075°12'1 2.4
2017-May-23 00:30N 39°53' W 075°11'2 4.9
2017-May-23 00:00N 39°54' W 075°08'2 3.8
2017-May-22 23:30N 39°53' W 075°10'2 3.7
2017-May-22 23:00N 39°54' W 075°12'0 0.0
2017-May-22 22:31N 39°54' W 075°12'0 0.0
2017-May-22 22:00N 39°54' W 075°12'0 0.0
2017-May-22 21:30N 39°54' W 075°12'0 0.0
2017-May-22 21:00N 39°54' W 075°12'0 0.0
2017-May-22 20:30N 39°54' W 075°12'0 0.0
2017-May-22 20:00N 39°54' W 075°12'0 0.0
2017-May-22 19:30N 39°54' W 075°12'0 0.0
2017-May-22 19:00N 39°54' W 075°12'0 0.0
2017-May-22 18:30N 39°54' W 075°12'0 0.0
2017-May-22 18:00N 39°54' W 075°12'0 0.0
2017-May-22 17:30N 39°54' W 075°12'0 0.0
2017-May-22 17:00N 39°54' W 075°12'0 0.0
2017-May-22 16:30N 39°54' W 075°12'0 0.0
2017-May-22 16:00N 39°54' W 075°12'0 0.0
2017-May-22 15:30N 39°54' W 075°12'0 0.0
2017-May-22 15:00N 39°54' W 075°12'0 0.0
2017-May-22 14:00N 39°54' W 075°12'0 0.0
2017-May-22 13:30N 39°54' W 075°12'0 0.0
2017-May-22 13:00N 39°54' W 075°12'0 0.0
2017-May-22 12:30N 39°54' W 075°12'0 0.0
2017-May-22 12:00N 39°54' W 075°12'0 0.0
2017-May-22 11:30N 39°54' W 075°12'0 0.6
2017-May-22 11:00N 39°53' W 075°12'4 8.3
2017-May-22 10:30N 39°51' W 075°16'5 9.1
2017-May-22 09:58N 39°50' W 075°22'2 4.2
2017-May-22 09:31N 39°49' W 075°24'0 0.1
2017-May-22 09:01N 39°49' W 075°24'1 2.9
2017-May-22 08:31N 39°50' W 075°23'0 0.0
2017-May-22 08:01N 39°50' W 075°23'0 0.0
2017-May-22 07:31N 39°50' W 075°23'0 0.0
2017-May-22 07:01N 39°50' W 075°23'0 0.0
2017-May-22 06:31N 39°50' W 075°23'0 0.0
2017-May-22 06:01N 39°50' W 075°23'0 0.0
2017-May-22 05:31N 39°50' W 075°23'0 0.0
2017-May-22 05:01N 39°50' W 075°23'0 0.0
2017-May-22 04:31N 39°50' W 075°23'0 0.0
2017-May-22 04:01N 39°50' W 075°23'0 0.0
2017-May-22 03:31N 39°50' W 075°23'0 0.0
2017-May-22 03:00N 39°50' W 075°23'0 0.0
2017-May-22 02:31N 39°50' W 075°23'0 0.0
2017-May-22 02:01N 39°50' W 075°23'0 0.0
2017-May-22 01:30N 39°50' W 075°23'0 0.0
2017-May-22 01:01N 39°50' W 075°23'0 0.0
2017-May-22 00:30N 39°50' W 075°23'0 0.0
2017-May-22 00:01N 39°50' W 075°23'0 0.0
2017-May-21 23:31N 39°50' W 075°23'0 0.0
2017-May-21 23:00N 39°50' W 075°23'0 0.0
2017-May-21 22:31N 39°50' W 075°23'0 0.0
2017-May-21 22:01N 39°50' W 075°23'0 0.0
2017-May-21 21:31N 39°50' W 075°23'0 0.0
2017-May-21 21:01N 39°50' W 075°23'2 4.9
2017-May-21 20:30N 39°51' W 075°20'0 0.1
2017-May-21 20:01N 39°51' W 075°20'2 4.8
2017-May-21 19:31N 39°50' W 075°23'0 0.0
2017-May-21 19:01N 39°50' W 075°23'0 0.0
2017-May-21 18:30N 39°50' W 075°23'0 0.0
2017-May-21 18:01N 39°50' W 075°23'0 0.0
2017-May-21 17:30N 39°50' W 075°23'0 0.0
2017-May-21 17:00N 39°50' W 075°23'0 0.0
2017-May-21 16:31N 39°50' W 075°23'0 0.0
2017-May-21 16:01N 39°50' W 075°23'0 0.0
2017-May-21 15:31N 39°50' W 075°23'0 0.0
2017-May-21 15:00N 39°50' W 075°23'0 0.0
2017-May-21 14:01N 39°50' W 075°23'0 0.0
2017-May-21 13:31N 39°50' W 075°23'0 0.0
2017-May-21 13:01N 39°50' W 075°23'0 0.0
2017-May-21 12:31N 39°50' W 075°23'0 0.0
2017-May-21 12:01N 39°50' W 075°23'1 2.6
2017-May-21 11:31N 39°49' W 075°24'0 0.2
2017-May-21 11:01N 39°49' W 075°24'0 0.7
2017-May-21 10:30N 39°48' W 075°25'0 0.6
2017-May-21 10:01N 39°48' W 075°25'1 1.4
2017-May-21 09:30N 39°49' W 075°24'3 6.7
2017-May-21 09:01N 39°51' W 075°21'4 7.3
2017-May-21 08:31N 39°51' W 075°16'4 7.9
2017-May-21 08:01N 39°53' W 075°12'1 1.4
2017-May-21 07:30N 39°54' W 075°12'0 0.0
2017-May-21 07:00N 39°54' W 075°12'0 0.1
2017-May-21 06:30N 39°54' W 075°12'0 0.1
2017-May-21 06:00N 39°54' W 075°12'0 0.0
2017-May-21 05:30N 39°54' W 075°12'0 0.0
2017-May-21 05:00N 39°54' W 075°12'0 0.0
2017-May-21 04:22N 39°54' W 075°12'0 0.0
2017-May-21 04:00N 39°54' W 075°12'0 0.0
2017-May-21 03:30N 39°54' W 075°12'0 0.0
2017-May-21 03:00N 39°54' W 075°12'0 0.0
2017-May-21 02:30N 39°54' W 075°12'0 0.0
2017-May-21 02:00N 39°54' W 075°12'0 0.0
2017-May-21 01:30N 39°54' W 075°12'0 0.0
2017-May-21 01:00N 39°54' W 075°12'0 0.0
2017-May-21 00:30N 39°54' W 075°12'0 0.0
2017-May-21 00:00N 39°54' W 075°12'0 0.0
2017-May-20 23:30N 39°54' W 075°12'0 0.0
2017-May-20 23:01N 39°54' W 075°12'0 0.0
2017-May-20 22:30N 39°54' W 075°12'0 0.0
2017-May-20 22:00N 39°54' W 075°12'0 0.0
2017-May-20 21:30N 39°54' W 075°12'0 0.0
2017-May-20 21:00N 39°54' W 075°12'0 0.0
2017-May-20 20:31N 39°54' W 075°12'1 2.6
2017-May-20 20:01N 39°53' W 075°10'2 4.0
2017-May-20 19:30N 39°54' W 075°08'0 0.2
2017-May-20 19:00N 39°54' W 075°08'0 0.0
2017-May-20 18:31N 39°54' W 075°08'0 0.0
2017-May-20 18:01N 39°54' W 075°08'0 0.0
2017-May-20 17:31N 39°54' W 075°08'0 0.0
2017-May-20 17:00N 39°54' W 075°08'0 0.4
2017-May-20 16:30N 39°54' W 075°08'0 0.4
2017-May-20 16:00N 39°54' W 075°08'0 0.0
2017-May-20 15:31N 39°54' W 075°08'0 0.0
2017-May-20 15:01N 39°54' W 075°08'0 0.0
2017-May-20 14:31N 39°54' W 075°08'0 0.0
2017-May-20 13:30N 39°54' W 075°08'0 0.0
2017-May-20 13:00N 39°54' W 075°08'0 0.6
2017-May-20 12:30N 39°54' W 075°08'1 1.1
2017-May-20 12:01N 39°54' W 075°08'3 5.6
2017-May-20 11:30N 39°54' W 075°12'0 0.3
2017-May-20 11:00N 39°54' W 075°12'0 0.0
2017-May-20 10:31N 39°54' W 075°12'0 0.0
2017-May-20 10:01N 39°54' W 075°12'0 0.0
2017-May-20 09:30N 39°54' W 075°12'0 0.0
2017-May-20 09:01N 39°54' W 075°12'0 0.0
2017-May-20 08:30N 39°54' W 075°12'0 0.0
2017-May-20 08:00N 39°54' W 075°12'0 0.0
2017-May-20 07:30N 39°54' W 075°12'0 0.0
2017-May-20 07:00N 39°54' W 075°12'0 0.0
2017-May-20 06:31N 39°54' W 075°12'0 0.0
2017-May-20 06:00N 39°54' W 075°12'0 0.0
2017-May-20 05:30N 39°54' W 075°12'0 0.0
2017-May-20 05:01N 39°54' W 075°12'0 0.0
2017-May-20 04:30N 39°54' W 075°12'0 0.0
2017-May-20 04:01N 39°54' W 075°12'0 0.0
2017-May-20 03:31N 39°54' W 075°12'0 0.0
2017-May-20 03:00N 39°54' W 075°12'0 0.0
2017-May-20 02:30N 39°54' W 075°12'0 0.0
2017-May-20 02:01N 39°54' W 075°12'0 0.0
2017-May-20 01:31N 39°54' W 075°12'0 0.0
2017-May-20 01:00N 39°54' W 075°12'0 0.0
2017-May-20 00:30N 39°54' W 075°12'0 0.0
2017-May-20 00:01N 39°54' W 075°12'2 4.3
2017-May-19 23:30N 39°53' W 075°09'1 2.5
2017-May-19 23:00N 39°54' W 075°08'2 4.6
2017-May-19 22:31N 39°53' W 075°11'2 4.4
2017-May-19 22:00N 39°54' W 075°08'2 3.1
2017-May-19 21:30N 39°53' W 075°10'2 3.5
2017-May-19 21:01N 39°54' W 075°12'0 0.0
2017-May-19 20:30N 39°54' W 075°12'0 0.0
2017-May-19 20:01N 39°54' W 075°12'0 0.0
2017-May-19 19:31N 39°54' W 075°12'0 0.0
2017-May-19 19:01N 39°54' W 075°12'0 0.0
2017-May-19 18:31N 39°54' W 075°12'0 0.0
2017-May-19 18:00N 39°54' W 075°12'0 0.0
2017-May-19 17:30N 39°54' W 075°12'0 0.0
2017-May-19 17:01N 39°54' W 075°12'0 0.0
2017-May-19 16:30N 39°54' W 075°12'0 0.0
2017-May-19 16:01N 39°54' W 075°12'0 0.0
2017-May-19 15:30N 39°54' W 075°12'0 0.0
2017-May-19 15:00N 39°54' W 075°12'0 0.0
2017-May-19 14:00N 39°54' W 075°12'0 0.0
2017-May-19 13:30N 39°54' W 075°12'0 0.0
2017-May-19 13:00N 39°54' W 075°12'0 0.0
2017-May-19 12:30N 39°54' W 075°12'0 0.0
2017-May-19 12:00N 39°54' W 075°12'0 0.0
2017-May-19 11:30N 39°54' W 075°12'0 0.0
2017-May-19 11:00N 39°54' W 075°12'0 0.0
2017-May-19 10:30N 39°54' W 075°12'0 0.0
2017-May-19 10:00N 39°54' W 075°12'0 0.0
2017-May-19 09:30N 39°54' W 075°12'0 0.0
2017-May-19 09:00N 39°54' W 075°12'0 0.0
2017-May-19 08:30N 39°54' W 075°12'0 0.0
2017-May-19 08:00N 39°54' W 075°12'0 0.0
2017-May-19 07:30N 39°54' W 075°12'0 0.0
2017-May-19 07:00N 39°54' W 075°12'0 0.0
2017-May-19 06:31N 39°54' W 075°12'0 0.0
2017-May-19 06:00N 39°54' W 075°12'0 0.0
2017-May-19 05:31N 39°54' W 075°12'0 0.0
2017-May-19 05:00N 39°54' W 075°12'0 0.0
2017-May-19 04:30N 39°54' W 075°12'0 0.0
2017-May-19 04:00N 39°54' W 075°12'0 0.0
2017-May-19 03:30N 39°54' W 075°12'0 0.0
2017-May-19 03:01N 39°54' W 075°12'4 7.4
2017-May-19 02:30N 39°51' W 075°15'1 1.6
2017-May-19 02:00N 39°51' W 075°16'0 0.0
2017-May-19 01:30N 39°51' W 075°16'0 0.3
2017-May-19 01:00N 39°51' W 075°16'2 3.1
2017-May-19 00:30N 39°51' W 075°18'1 2.4
2017-May-19 00:00N 39°51' W 075°17'4 7.1
2017-May-18 23:24N 39°53' W 075°12'1 1.8
2017-May-18 23:00N 39°54' W 075°12'0 0.0
2017-May-18 22:30N 39°54' W 075°12'0 0.0
2017-May-18 22:00N 39°54' W 075°12'0 0.0
2017-May-18 21:31N 39°54' W 075°12'0 0.0
2017-May-18 21:00N 39°54' W 075°12'0 0.0
2017-May-18 20:30N 39°54' W 075°12'0 0.0
2017-May-18 20:00N 39°54' W 075°12'0 0.1
2017-May-18 19:30N 39°54' W 075°12'0 0.1
2017-May-18 19:00N 39°54' W 075°12'0 0.0
2017-May-18 18:30N 39°54' W 075°12'0 0.0
2017-May-18 18:01N 39°54' W 075°12'0 0.0
2017-May-18 17:31N 39°54' W 075°12'0 0.0
2017-May-18 17:00N 39°54' W 075°12'0 0.0
2017-May-18 16:31N 39°54' W 075°12'0 0.0
2017-May-18 16:01N 39°54' W 075°12'0 0.0
2017-May-18 15:30N 39°54' W 075°12'0 0.0
2017-May-18 15:01N 39°54' W 075°12'0 0.0
2017-May-18 14:01N 39°54' W 075°12'0 0.0
2017-May-18 13:30N 39°54' W 075°12'0 0.0
2017-May-18 13:00N 39°54' W 075°12'0 0.0
2017-May-18 12:30N 39°54' W 075°12'0 0.0
2017-May-18 12:00N 39°54' W 075°12'0 0.0
2017-May-18 11:30N 39°54' W 075°12'0 0.0
2017-May-18 11:00N 39°54' W 075°12'0 0.0
2017-May-18 10:30N 39°54' W 075°12'0 0.0
2017-May-18 10:00N 39°54' W 075°12'0 0.0
2017-May-18 09:30N 39°54' W 075°12'0 0.0
2017-May-18 09:00N 39°54' W 075°12'0 0.0
2017-May-18 08:30N 39°54' W 075°12'0 0.0
2017-May-18 07:56N 39°54' W 075°12'0 0.0
2017-May-18 07:30N 39°54' W 075°12'0 0.0
2017-May-18 07:00N 39°54' W 075°12'0 0.0
2017-May-18 06:30N 39°54' W 075°12'0 0.0
2017-May-18 06:00N 39°54' W 075°12'0 0.0
2017-May-18 05:30N 39°54' W 075°12'0 0.0
2017-May-18 05:00N 39°54' W 075°12'0 0.0
2017-May-18 04:30N 39°54' W 075°12'0 0.0
2017-May-18 04:00N 39°54' W 075°12'0 0.1
2017-May-18 03:30N 39°54' W 075°12'0 0.1
2017-May-18 03:00N 39°54' W 075°12'0 0.0
2017-May-18 02:30N 39°54' W 075°12'0 0.0
2017-May-18 02:00N 39°54' W 075°12'0 0.4
2017-May-18 01:30N 39°54' W 075°12'2 3.6
2017-May-18 01:00N 39°52' W 075°13'0 0.1
2017-May-18 00:30N 39°52' W 075°13'0 0.8
2017-May-18 00:00N 39°52' W 075°13'1 2.0
2017-May-17 23:30N 39°51' W 075°14'3 6.4
2017-May-17 23:00N 39°54' W 075°12'0 0.0
2017-May-17 22:30N 39°54' W 075°12'0 0.0
2017-May-17 22:00N 39°54' W 075°12'2 4.6
2017-May-17 21:30N 39°52' W 075°13'2 4.4
2017-May-17 21:01N 39°51' W 075°16'3 6.5
2017-May-17 20:30N 39°51' W 075°20'1 2.6
2017-May-17 20:00N 39°51' W 075°19'5 9.0
2017-May-17 19:30N 39°52' W 075°13'2 3.6
2017-May-17 19:00N 39°54' W 075°12'0 0.0
2017-May-17 18:30N 39°54' W 075°12'0 0.0
2017-May-17 18:00N 39°54' W 075°12'0 0.0
2017-May-17 17:30N 39°54' W 075°12'0 0.0
2017-May-17 17:00N 39°54' W 075°12'0 0.0
2017-May-17 16:30N 39°54' W 075°12'0 0.0
2017-May-17 16:00N 39°54' W 075°12'0 0.0
2017-May-17 15:30N 39°54' W 075°12'0 0.0
2017-May-17 15:00N 39°54' W 075°12'0 0.0
2017-May-17 14:30N 39°54' W 075°12'0 0.0
2017-May-17 13:30N 39°54' W 075°12'0 0.0
2017-May-17 13:00N 39°54' W 075°12'0 0.0
2017-May-17 12:30N 39°54' W 075°12'0 0.0
2017-May-17 12:00N 39°54' W 075°12'0 0.0
2017-May-17 11:30N 39°54' W 075°12'0 0.0
2017-May-17 11:00N 39°54' W 075°12'0 0.0
2017-May-17 10:30N 39°54' W 075°12'0 0.0
2017-May-17 10:00N 39°54' W 075°12'0 0.0
2017-May-17 09:30N 39°54' W 075°12'0 0.0
2017-May-17 09:00N 39°54' W 075°12'0 0.0
2017-May-17 08:30N 39°54' W 075°12'0 0.0
2017-May-17 08:00N 39°54' W 075°12'0 0.0
2017-May-17 07:30N 39°54' W 075°12'0 0.0
2017-May-17 07:00N 39°54' W 075°12'0 0.0
2017-May-17 06:30N 39°54' W 075°12'0 0.0
2017-May-17 06:00N 39°54' W 075°12'0 0.0
2017-May-17 05:30N 39°54' W 075°12'0 0.0
2017-May-17 05:00N 39°54' W 075°12'0 0.0
2017-May-17 04:30N 39°54' W 075°12'0 0.0
2017-May-17 04:00N 39°54' W 075°12'0 0.0
2017-May-17 03:30N 39°54' W 075°12'0 0.0
2017-May-17 03:00N 39°54' W 075°12'0 0.0
2017-May-17 02:30N 39°54' W 075°12'0 0.0
2017-May-17 02:00N 39°54' W 075°12'0 0.0
2017-May-17 01:30N 39°54' W 075°12'0 0.0
2017-May-17 01:00N 39°54' W 075°12'0 0.0
2017-May-17 00:30N 39°54' W 075°12'0 0.0
2017-May-17 00:00N 39°54' W 075°12'0 0.0
2017-May-16 23:30N 39°54' W 075°12'2 4.2
2017-May-16 23:01N 39°52' W 075°13'1 1.6
2017-May-16 22:31N 39°51' W 075°14'0 0.5
2017-May-16 22:00N 39°52' W 075°14'1 1.1
2017-May-16 21:30N 39°51' W 075°15'3 6.3
2017-May-16 21:01N 39°54' W 075°12'0 0.0
2017-May-16 20:30N 39°54' W 075°12'0 0.0
2017-May-16 20:00N 39°54' W 075°12'0 0.0
2017-May-16 19:30N 39°54' W 075°12'0 0.0
2017-May-16 19:00N 39°54' W 075°12'0 0.0
2017-May-16 18:30N 39°54' W 075°12'0 0.0
2017-May-16 18:00N 39°54' W 075°12'0 0.0
2017-May-16 17:30N 39°54' W 075°12'0 0.0
2017-May-16 17:00N 39°54' W 075°12'0 0.0
2017-May-16 16:30N 39°54' W 075°12'0 0.0
2017-May-16 16:01N 39°54' W 075°12'3 5.5
2017-May-16 15:30N 39°53' W 075°08'1 1.4
2017-May-16 15:00N 39°54' W 075°08'0 0.1
2017-May-16 14:01N 39°54' W 075°08'0 0.0
2017-May-16 13:31N 39°54' W 075°08'0 0.0
2017-May-16 13:01N 39°54' W 075°08'0 0.0
2017-May-16 12:31N 39°54' W 075°08'0 0.0
2017-May-16 12:00N 39°54' W 075°08'0 0.0
2017-May-16 11:31N 39°54' W 075°08'0 0.5
2017-May-16 11:01N 39°54' W 075°08'2 3.3
2017-May-16 10:31N 39°53' W 075°09'2 3.1
2017-May-16 10:01N 39°54' W 075°08'0 0.0
2017-May-16 09:31N 39°54' W 075°08'4 7.2
2017-May-16 09:01N 39°53' W 075°12'4 8.3
2017-May-16 08:31N 39°51' W 075°17'3 5.7
2017-May-16 08:00N 39°51' W 075°20'0 0.0
2017-May-16 07:30N 39°51' W 075°20'1 2.4
2017-May-16 07:01N 39°50' W 075°21'1 2.0
2017-May-16 06:31N 39°51' W 075°20'2 4.5
2017-May-16 06:01N 39°51' W 075°18'4 8.0
2017-May-16 05:30N 39°52' W 075°13'1 3.0
2017-May-16 05:00N 39°54' W 075°12'0 0.0
2017-May-16 04:30N 39°54' W 075°12'0 0.0
2017-May-16 04:00N 39°54' W 075°12'0 0.0
2017-May-16 03:30N 39°54' W 075°12'0 0.0
2017-May-16 03:00N 39°54' W 075°12'0 0.0
2017-May-16 02:30N 39°54' W 075°12'0 0.0
2017-May-16 02:00N 39°54' W 075°12'0 0.0
2017-May-16 01:30N 39°54' W 075°12'0 0.0
2017-May-16 01:00N 39°54' W 075°12'0 0.0
2017-May-16 00:30N 39°54' W 075°12'0 0.0
2017-May-16 00:00N 39°54' W 075°12'0 0.0
2017-May-15 23:30N 39°54' W 075°12'0 0.0
2017-May-15 23:00N 39°54' W 075°12'0 0.0
2017-May-15 22:30N 39°54' W 075°12'0 0.0
2017-May-15 22:00N 39°54' W 075°12'0 0.0
2017-May-15 21:30N 39°54' W 075°12'0 0.0
2017-May-15 21:00N 39°54' W 075°12'0 0.0
2017-May-15 20:30N 39°54' W 075°12'0 0.0
2017-May-15 20:00N 39°54' W 075°12'0 0.0
2017-May-15 19:30N 39°54' W 075°12'0 0.0
2017-May-15 19:00N 39°54' W 075°12'0 0.0
2017-May-15 18:30N 39°54' W 075°12'0 0.0
2017-May-15 18:00N 39°54' W 075°12'0 0.0
2017-May-15 17:30N 39°54' W 075°12'0 0.0
2017-May-15 17:00N 39°54' W 075°12'0 0.0
2017-May-15 16:30N 39°54' W 075°12'0 0.0
2017-May-15 16:00N 39°54' W 075°12'0 0.0
2017-May-15 15:30N 39°54' W 075°12'0 0.0
2017-May-15 15:00N 39°54' W 075°12'0 0.0
2017-May-15 14:00N 39°54' W 075°12'0 0.0
2017-May-15 13:30N 39°54' W 075°12'0 0.0
2017-May-15 13:00N 39°54' W 075°12'0 0.0
2017-May-15 12:30N 39°54' W 075°12'0 0.5
2017-May-15 12:00N 39°54' W 075°12'0 0.0
2017-May-15 11:30N 39°54' W 075°12'3 5.4
2017-May-15 11:00N 39°54' W 075°08'0 0.1
2017-May-15 10:30N 39°54' W 075°08'2 4.2
2017-May-15 10:00N 39°53' W 075°10'1 2.4
2017-May-15 09:30N 39°53' W 075°09'0 0.8
2017-May-15 09:00N 39°53' W 075°08'3 5.3
2017-May-15 08:30N 39°53' W 075°12'611.1
2017-May-15 08:00N 39°51' W 075°19'510.8
2017-May-15 07:30N 39°48' W 075°25'0 0.6
2017-May-15 07:00N 39°48' W 075°25'0 0.3
2017-May-15 06:30N 39°48' W 075°25'2 3.1
2017-May-15 06:00N 39°47' W 075°27'2 3.2
2017-May-15 05:30N 39°48' W 075°25'0 0.0
2017-May-15 05:00N 39°48' W 075°25'1 1.9
2017-May-15 04:30N 39°49' W 075°24'4 8.3
2017-May-15 04:00N 39°51' W 075°19'3 6.7
2017-May-15 03:30N 39°51' W 075°15'0 0.1
2017-May-15 03:00N 39°51' W 075°15'1 1.4
2017-May-15 02:30N 39°51' W 075°16'2 4.0
2017-May-15 02:00N 39°51' W 075°19'2 4.5
2017-May-15 01:30N 39°50' W 075°21'1 2.8
2017-May-15 01:01N 39°50' W 075°23'0 0.0
2017-May-15 00:30N 39°50' W 075°23'0 0.0
2017-May-15 00:01N 39°50' W 075°23'0 0.0
2017-May-14 23:30N 39°50' W 075°23'0 0.0
2017-May-14 23:00N 39°50' W 075°23'0 0.0
2017-May-14 22:31N 39°50' W 075°23'0 0.0
2017-May-14 22:01N 39°50' W 075°23'0 0.0
2017-May-14 21:31N 39°50' W 075°23'0 0.0
2017-May-14 21:01N 39°50' W 075°23'0 0.0
2017-May-14 20:31N 39°50' W 075°23'1 3.0
2017-May-14 20:00N 39°49' W 075°24'0 0.0
2017-May-14 19:31N 39°49' W 075°24'0 0.0
2017-May-14 19:00N 39°49' W 075°24'0 0.5
2017-May-14 18:30N 39°49' W 075°24'1 1.5
2017-May-14 18:01N 39°48' W 075°25'4 7.8
2017-May-14 17:31N 39°51' W 075°21'4 8.8
2017-May-14 17:01N 39°51' W 075°15'4 7.3
2017-May-14 16:30N 39°54' W 075°12'0 0.0
2017-May-14 16:01N 39°54' W 075°12'0 0.0
2017-May-14 15:31N 39°54' W 075°12'0 0.0
2017-May-14 15:01N 39°54' W 075°12'0 0.0
2017-May-14 14:31N 39°54' W 075°12'0 0.0
2017-May-14 13:30N 39°54' W 075°12'0 0.0
2017-May-14 13:00N 39°54' W 075°12'0 0.0
2017-May-14 12:31N 39°54' W 075°12'0 0.0
2017-May-14 12:01N 39°54' W 075°12'0 0.0
2017-May-14 11:31N 39°54' W 075°12'0 0.0
2017-May-14 11:00N 39°54' W 075°12'0 0.0
2017-May-14 10:31N 39°54' W 075°12'0 0.0
2017-May-14 10:01N 39°54' W 075°12'0 0.0
2017-May-14 09:31N 39°54' W 075°12'0 1.0
2017-May-14 09:00N 39°53' W 075°12'3 5.8
2017-May-14 08:30N 39°54' W 075°08'0 0.3
2017-May-14 08:00N 39°54' W 075°08'1 2.9
2017-May-14 07:30N 39°53' W 075°09'4 7.5
2017-May-14 07:00N 39°51' W 075°14'3 5.2
2017-May-14 06:30N 39°53' W 075°12'0 0.6
2017-May-14 06:01N 39°54' W 075°12'0 0.0
2017-May-14 05:30N 39°54' W 075°12'0 0.0
2017-May-14 05:01N 39°54' W 075°12'0 0.0
2017-May-14 04:30N 39°54' W 075°12'0 0.0
2017-May-14 04:01N 39°54' W 075°12'0 0.0
2017-May-14 03:30N 39°54' W 075°12'0 0.0
2017-May-14 03:01N 39°54' W 075°12'0 0.0
2017-May-14 02:30N 39°54' W 075°12'0 0.0
2017-May-14 02:00N 39°54' W 075°12'3 5.6
2017-May-14 01:30N 39°54' W 075°08'0 0.3
2017-May-14 01:01N 39°54' W 075°08'3 5.9
2017-May-14 00:31N 39°53' W 075°12'1 1.3
2017-May-14 00:01N 39°54' W 075°12'0 0.0
2017-May-13 23:31N 39°54' W 075°12'0 0.0
2017-May-13 23:01N 39°54' W 075°12'0 0.0
2017-May-13 22:31N 39°54' W 075°12'0 0.0
2017-May-13 22:01N 39°54' W 075°12'0 0.0
2017-May-13 21:30N 39°54' W 075°12'0 0.0
2017-May-13 21:01N 39°54' W 075°12'0 0.0
2017-May-13 20:31N 39°54' W 075°12'0 0.0
2017-May-13 20:01N 39°54' W 075°12'0 0.0
2017-May-13 19:31N 39°54' W 075°12'0 0.0
2017-May-13 19:00N 39°54' W 075°12'0 0.0
2017-May-13 18:31N 39°54' W 075°12'0 0.0
2017-May-13 18:01N 39°54' W 075°12'0 0.0
2017-May-13 17:31N 39°54' W 075°12'0 0.0
2017-May-13 17:01N 39°54' W 075°12'  
Track history (hours):
 
Tides and Currents Weather Stations Pressure Air Temp Water Temp Dewpoint Dewpoint Depression Visibility Wind Speed Wind Dir Waves Ship Positions

Robert E. Mcallister

Owner: McAllister Towing & Transportation, Staten Island, NY. More information available from US FCC via Universal Licensing System and Coast Guard Vessel Documentation Center.

Last reported at 2017-May-23 17:00 UTC. Time now 2017-May-23 17:04 UTC.
Position N 39°54' W 075°12'.

Length 34 m; draft 4.3 m.

Type: Tug. MMSI: 367091120.

Date/timePositionNaut miles runAvg speedWind from/ knotsBaromVisibWave heightAir tempDewpointWater temp
2017-May-23 17:00N 39°54' W 075°12'0 0.0
2017-May-23 16:30N 39°54' W 075°12'0 0.0
2017-May-23 16:01N 39°54' W 075°12'0 0.0
2017-May-23 15:31N 39°54' W 075°12'0 0.0
2017-May-23 15:00N 39°54' W 075°12'0 0.0
2017-May-23 14:31N 39°54' W 075°12'0 0.0
2017-May-23 13:30N 39°54' W 075°12'0 0.0
2017-May-23 13:00N 39°54' W 075°12'0 0.0
2017-May-23 12:30N 39°54' W 075°12'0 0.0
2017-May-23 12:00N 39°54' W 075°12'0 0.0
2017-May-23 11:30N 39°54' W 075°12'1 1.7
2017-May-23 11:00N 39°53' W 075°12'4 8.3
2017-May-23 10:31N 39°51' W 075°17'3 5.7
2017-May-23 10:00N 39°51' W 075°20'0 0.3
2017-May-23 09:31N 39°51' W 075°20'1 2.5
2017-May-23 09:00N 39°50' W 075°22'2 3.4
2017-May-23 08:30N 39°49' W 075°23'3 5.9
2017-May-23 08:00N 39°51' W 075°20'3 5.4
2017-May-23 07:31N 39°51' W 075°17'4 7.6
2017-May-23 07:01N 39°53' W 075°12'1 2.6
2017-May-23 06:30N 39°54' W 075°12'0 0.0
2017-May-23 06:00N 39°54' W 075°12'0 0.0
2017-May-23 05:30N 39°54' W 075°12'0 0.0
2017-May-23 05:00N 39°54' W 075°12'0 0.0
2017-May-23 04:31N 39°54' W 075°12'0 0.0
2017-May-23 04:01N 39°54' W 075°12'0 0.0
2017-May-23 03:31N 39°54' W 075°12'0 0.0
2017-May-23 03:01N 39°54' W 075°12'0 0.0
2017-May-23 02:30N 39°54' W 075°12'0 0.0
2017-May-23 02:01N 39°54' W 075°12'0 0.0
2017-May-23 01:30N 39°54' W 075°12'0 0.0
2017-May-23 01:01N 39°54' W 075°12'1 2.4
2017-May-23 00:30N 39°53' W 075°11'2 4.9
2017-May-23 00:00N 39°54' W 075°08'2 3.8
2017-May-22 23:30N 39°53' W 075°10'2 3.7
2017-May-22 23:00N 39°54' W 075°12'0 0.0
2017-May-22 22:31N 39°54' W 075°12'0 0.0
2017-May-22 22:00N 39°54' W 075°12'0 0.0
2017-May-22 21:30N 39°54' W 075°12'0 0.0
2017-May-22 21:00N 39°54' W 075°12'0 0.0
2017-May-22 20:30N 39°54' W 075°12'0 0.0
2017-May-22 20:00N 39°54' W 075°12'0 0.0
2017-May-22 19:30N 39°54' W 075°12'0 0.0
2017-May-22 19:00N 39°54' W 075°12'0 0.0
2017-May-22 18:30N 39°54' W 075°12'0 0.0
2017-May-22 18:00N 39°54' W 075°12'0 0.0
2017-May-22 17:30N 39°54' W 075°12'0 0.0
2017-May-22 17:00N 39°54' W 075°12'0 0.0
2017-May-22 16:30N 39°54' W 075°12'0 0.0
2017-May-22 16:00N 39°54' W 075°12'0 0.0
2017-May-22 15:30N 39°54' W 075°12'0 0.0
2017-May-22 15:00N 39°54' W 075°12'0 0.0
2017-May-22 14:00N 39°54' W 075°12'0 0.0
2017-May-22 13:30N 39°54' W 075°12'0 0.0
2017-May-22 13:00N 39°54' W 075°12'0 0.0
2017-May-22 12:30N 39°54' W 075°12'0 0.0
2017-May-22 12:00N 39°54' W 075°12'0 0.0
2017-May-22 11:30N 39°54' W 075°12'0 0.6
2017-May-22 11:00N 39°53' W 075°12'4 8.3
2017-May-22 10:30N 39°51' W 075°16'5 9.1
2017-May-22 09:58N 39°50' W 075°22'2 4.2
2017-May-22 09:31N 39°49' W 075°24'0 0.1
2017-May-22 09:01N 39°49' W 075°24'1 2.9
2017-May-22 08:31N 39°50' W 075°23'0 0.0
2017-May-22 08:01N 39°50' W 075°23'0 0.0
2017-May-22 07:31N 39°50' W 075°23'0 0.0
2017-May-22 07:01N 39°50' W 075°23'0 0.0
2017-May-22 06:31N 39°50' W 075°23'0 0.0
2017-May-22 06:01N 39°50' W 075°23'0 0.0
2017-May-22 05:31N 39°50' W 075°23'0 0.0
2017-May-22 05:01N 39°50' W 075°23'0 0.0
2017-May-22 04:31N 39°50' W 075°23'0 0.0
2017-May-22 04:01N 39°50' W 075°23'0 0.0
2017-May-22 03:31N 39°50' W 075°23'0 0.0
2017-May-22 03:00N 39°50' W 075°23'0 0.0
2017-May-22 02:31N 39°50' W 075°23'0 0.0
2017-May-22 02:01N 39°50' W 075°23'0 0.0
2017-May-22 01:30N 39°50' W 075°23'0 0.0
2017-May-22 01:01N 39°50' W 075°23'0 0.0
2017-May-22 00:30N 39°50' W 075°23'0 0.0
2017-May-22 00:01N 39°50' W 075°23'0 0.0
2017-May-21 23:31N 39°50' W 075°23'0 0.0
2017-May-21 23:00N 39°50' W 075°23'0 0.0
2017-May-21 22:31N 39°50' W 075°23'0 0.0
2017-May-21 22:01N 39°50' W 075°23'0 0.0
2017-May-21 21:31N 39°50' W 075°23'0 0.0
2017-May-21 21:01N 39°50' W 075°23'2 4.9
2017-May-21 20:30N 39°51' W 075°20'0 0.1
2017-May-21 20:01N 39°51' W 075°20'2 4.8
2017-May-21 19:31N 39°50' W 075°23'0 0.0
2017-May-21 19:01N 39°50' W 075°23'0 0.0
2017-May-21 18:30N 39°50' W 075°23'0 0.0
2017-May-21 18:01N 39°50' W 075°23'0 0.0
2017-May-21 17:30N 39°50' W 075°23'0 0.0
2017-May-21 17:00N 39°50' W 075°23'0 0.0
2017-May-21 16:31N 39°50' W 075°23'0 0.0
2017-May-21 16:01N 39°50' W 075°23'0 0.0
2017-May-21 15:31N 39°50' W 075°23'0 0.0
2017-May-21 15:00N 39°50' W 075°23'0 0.0
2017-May-21 14:01N 39°50' W 075°23'0 0.0
2017-May-21 13:31N 39°50' W 075°23'0 0.0
2017-May-21 13:01N 39°50' W 075°23'0 0.0
2017-May-21 12:31N 39°50' W 075°23'0 0.0
2017-May-21 12:01N 39°50' W 075°23'1 2.6
2017-May-21 11:31N 39°49' W 075°24'0 0.2
2017-May-21 11:01N 39°49' W 075°24'0 0.7
2017-May-21 10:30N 39°48' W 075°25'0 0.6
2017-May-21 10:01N 39°48' W 075°25'1 1.4
2017-May-21 09:30N 39°49' W 075°24'3 6.7
2017-May-21 09:01N 39°51' W 075°21'4 7.3
2017-May-21 08:31N 39°51' W 075°16'4 7.9
2017-May-21 08:01N 39°53' W 075°12'1 1.4
2017-May-21 07:30N 39°54' W 075°12'0 0.0
2017-May-21 07:00N 39°54' W 075°12'0 0.1
2017-May-21 06:30N 39°54' W 075°12'0 0.1
2017-May-21 06:00N 39°54' W 075°12'0 0.0
2017-May-21 05:30N 39°54' W 075°12'0 0.0
2017-May-21 05:00N 39°54' W 075°12'0 0.0
2017-May-21 04:22N 39°54' W 075°12'0 0.0
2017-May-21 04:00N 39°54' W 075°12'0 0.0
2017-May-21 03:30N 39°54' W 075°12'0 0.0
2017-May-21 03:00N 39°54' W 075°12'0 0.0
2017-May-21 02:30N 39°54' W 075°12'0 0.0
2017-May-21 02:00N 39°54' W 075°12'0 0.0
2017-May-21 01:30N 39°54' W 075°12'0 0.0
2017-May-21 01:00N 39°54' W 075°12'0 0.0
2017-May-21 00:30N 39°54' W 075°12'0 0.0
2017-May-21 00:00N 39°54' W 075°12'0 0.0
2017-May-20 23:30N 39°54' W 075°12'0 0.0
2017-May-20 23:01N 39°54' W 075°12'0 0.0
2017-May-20 22:30N 39°54' W 075°12'0 0.0
2017-May-20 22:00N 39°54' W 075°12'0 0.0
2017-May-20 21:30N 39°54' W 075°12'0 0.0
2017-May-20 21:00N 39°54' W 075°12'0 0.0
2017-May-20 20:31N 39°54' W 075°12'1 2.6
2017-May-20 20:01N 39°53' W 075°10'2 4.0
2017-May-20 19:30N 39°54' W 075°08'0 0.2
2017-May-20 19:00N 39°54' W 075°08'0 0.0
2017-May-20 18:31N 39°54' W 075°08'0 0.0
2017-May-20 18:01N 39°54' W 075°08'0 0.0
2017-May-20 17:31N 39°54' W 075°08'0 0.0
2017-May-20 17:00N 39°54' W 075°08'0 0.4
2017-May-20 16:30N 39°54' W 075°08'0 0.4
2017-May-20 16:00N 39°54' W 075°08'0 0.0
2017-May-20 15:31N 39°54' W 075°08'0 0.0
2017-May-20 15:01N 39°54' W 075°08'0 0.0
2017-May-20 14:31N 39°54' W 075°08'0 0.0
2017-May-20 13:30N 39°54' W 075°08'0 0.0
2017-May-20 13:00N 39°54' W 075°08'0 0.6
2017-May-20 12:30N 39°54' W 075°08'1 1.1
2017-May-20 12:01N 39°54' W 075°08'3 5.6
2017-May-20 11:30N 39°54' W 075°12'0 0.3
2017-May-20 11:00N 39°54' W 075°12'0 0.0
2017-May-20 10:31N 39°54' W 075°12'0 0.0
2017-May-20 10:01N 39°54' W 075°12'0 0.0
2017-May-20 09:30N 39°54' W 075°12'0 0.0
2017-May-20 09:01N 39°54' W 075°12'0 0.0
2017-May-20 08:30N 39°54' W 075°12'0 0.0
2017-May-20 08:00N 39°54' W 075°12'0 0.0
2017-May-20 07:30N 39°54' W 075°12'0 0.0
2017-May-20 07:00N 39°54' W 075°12'0 0.0
2017-May-20 06:31N 39°54' W 075°12'0 0.0
2017-May-20 06:00N 39°54' W 075°12'0 0.0
2017-May-20 05:30N 39°54' W 075°12'0 0.0
2017-May-20 05:01N 39°54' W 075°12'0 0.0
2017-May-20 04:30N 39°54' W 075°12'0 0.0
2017-May-20 04:01N 39°54' W 075°12'0 0.0
2017-May-20 03:31N 39°54' W 075°12'0 0.0
2017-May-20 03:00N 39°54' W 075°12'0 0.0
2017-May-20 02:30N 39°54' W 075°12'0 0.0
2017-May-20 02:01N 39°54' W 075°12'0 0.0
2017-May-20 01:31N 39°54' W 075°12'0 0.0
2017-May-20 01:00N 39°54' W 075°12'0 0.0
2017-May-20 00:30N 39°54' W 075°12'0 0.0
2017-May-20 00:01N 39°54' W 075°12'2 4.3
2017-May-19 23:30N 39°53' W 075°09'1 2.5
2017-May-19 23:00N 39°54' W 075°08'2 4.6
2017-May-19 22:31N 39°53' W 075°11'2 4.4
2017-May-19 22:00N 39°54' W 075°08'2 3.1
2017-May-19 21:30N 39°53' W 075°10'2 3.5
2017-May-19 21:01N 39°54' W 075°12'0 0.0
2017-May-19 20:30N 39°54' W 075°12'0 0.0
2017-May-19 20:01N 39°54' W 075°12'0 0.0
2017-May-19 19:31N 39°54' W 075°12'0 0.0
2017-May-19 19:01N 39°54' W 075°12'0 0.0
2017-May-19 18:31N 39°54' W 075°12'0 0.0
2017-May-19 18:00N 39°54' W 075°12'0 0.0
2017-May-19 17:30N 39°54' W 075°12'0 0.0
2017-May-19 17:01N 39°54' W 075°12'0 0.0
2017-May-19 16:30N 39°54' W 075°12'0 0.0
2017-May-19 16:01N 39°54' W 075°12'0 0.0
2017-May-19 15:30N 39°54' W 075°12'0 0.0
2017-May-19 15:00N 39°54' W 075°12'0 0.0
2017-May-19 14:00N 39°54' W 075°12'0 0.0
2017-May-19 13:30N 39°54' W 075°12'0 0.0
2017-May-19 13:00N 39°54' W 075°12'0 0.0
2017-May-19 12:30N 39°54' W 075°12'0 0.0
2017-May-19 12:00N 39°54' W 075°12'0 0.0
2017-May-19 11:30N 39°54' W 075°12'0 0.0
2017-May-19 11:00N 39°54' W 075°12'0 0.0
2017-May-19 10:30N 39°54' W 075°12'0 0.0
2017-May-19 10:00N 39°54' W 075°12'0 0.0
2017-May-19 09:30N 39°54' W 075°12'0 0.0
2017-May-19 09:00N 39°54' W 075°12'0 0.0
2017-May-19 08:30N 39°54' W 075°12'0 0.0
2017-May-19 08:00N 39°54' W 075°12'0 0.0
2017-May-19 07:30N 39°54' W 075°12'0 0.0
2017-May-19 07:00N 39°54' W 075°12'0 0.0
2017-May-19 06:31N 39°54' W 075°12'0 0.0
2017-May-19 06:00N 39°54' W 075°12'0 0.0
2017-May-19 05:31N 39°54' W 075°12'0 0.0
2017-May-19 05:00N 39°54' W 075°12'0 0.0
2017-May-19 04:30N 39°54' W 075°12'0 0.0
2017-May-19 04:00N 39°54' W 075°12'0 0.0
2017-May-19 03:30N 39°54' W 075°12'0 0.0
2017-May-19 03:01N 39°54' W 075°12'4 7.4
2017-May-19 02:30N 39°51' W 075°15'1 1.6
2017-May-19 02:00N 39°51' W 075°16'0 0.0
2017-May-19 01:30N 39°51' W 075°16'0 0.3
2017-May-19 01:00N 39°51' W 075°16'2 3.1
2017-May-19 00:30N 39°51' W 075°18'1 2.4
2017-May-19 00:00N 39°51' W 075°17'4 7.1
2017-May-18 23:24N 39°53' W 075°12'1 1.8
2017-May-18 23:00N 39°54' W 075°12'0 0.0
2017-May-18 22:30N 39°54' W 075°12'0 0.0
2017-May-18 22:00N 39°54' W 075°12'0 0.0
2017-May-18 21:31N 39°54' W 075°12'0 0.0
2017-May-18 21:00N 39°54' W 075°12'0 0.0
2017-May-18 20:30N 39°54' W 075°12'0 0.0
2017-May-18 20:00N 39°54' W 075°12'0 0.1
2017-May-18 19:30N 39°54' W 075°12'0 0.1
2017-May-18 19:00N 39°54' W 075°12'0 0.0
2017-May-18 18:30N 39°54' W 075°12'0 0.0
2017-May-18 18:01N 39°54' W 075°12'0 0.0
2017-May-18 17:31N 39°54' W 075°12'0 0.0
2017-May-18 17:00N 39°54' W 075°12'0 0.0
2017-May-18 16:31N 39°54' W 075°12'0 0.0
2017-May-18 16:01N 39°54' W 075°12'0 0.0
2017-May-18 15:30N 39°54' W 075°12'0 0.0
2017-May-18 15:01N 39°54' W 075°12'0 0.0
2017-May-18 14:01N 39°54' W 075°12'0 0.0
2017-May-18 13:30N 39°54' W 075°12'0 0.0
2017-May-18 13:00N 39°54' W 075°12'0 0.0
2017-May-18 12:30N 39°54' W 075°12'0 0.0
2017-May-18 12:00N 39°54' W 075°12'0 0.0
2017-May-18 11:30N 39°54' W 075°12'0 0.0
2017-May-18 11:00N 39°54' W 075°12'0 0.0
2017-May-18 10:30N 39°54' W 075°12'0 0.0
2017-May-18 10:00N 39°54' W 075°12'0 0.0
2017-May-18 09:30N 39°54' W 075°12'0 0.0
2017-May-18 09:00N 39°54' W 075°12'0 0.0
2017-May-18 08:30N 39°54' W 075°12'0 0.0
2017-May-18 07:56N 39°54' W 075°12'0 0.0
2017-May-18 07:30N 39°54' W 075°12'0 0.0
2017-May-18 07:00N 39°54' W 075°12'0 0.0
2017-May-18 06:30N 39°54' W 075°12'0 0.0
2017-May-18 06:00N 39°54' W 075°12'0 0.0
2017-May-18 05:30N 39°54' W 075°12'0 0.0
2017-May-18 05:00N 39°54' W 075°12'0 0.0
2017-May-18 04:30N 39°54' W 075°12'0 0.0
2017-May-18 04:00N 39°54' W 075°12'0 0.1
2017-May-18 03:30N 39°54' W 075°12'0 0.1
2017-May-18 03:00N 39°54' W 075°12'0 0.0
2017-May-18 02:30N 39°54' W 075°12'0 0.0
2017-May-18 02:00N 39°54' W 075°12'0 0.4
2017-May-18 01:30N 39°54' W 075°12'2 3.6
2017-May-18 01:00N 39°52' W 075°13'0 0.1
2017-May-18 00:30N 39°52' W 075°13'0 0.8
2017-May-18 00:00N 39°52' W 075°13'1 2.0
2017-May-17 23:30N 39°51' W 075°14'3 6.4
2017-May-17 23:00N 39°54' W 075°12'0 0.0
2017-May-17 22:30N 39°54' W 075°12'0 0.0
2017-May-17 22:00N 39°54' W 075°12'2 4.6
2017-May-17 21:30N 39°52' W 075°13'2 4.4
2017-May-17 21:01N 39°51' W 075°16'3 6.5
2017-May-17 20:30N 39°51' W 075°20'1 2.6
2017-May-17 20:00N 39°51' W 075°19'5 9.0
2017-May-17 19:30N 39°52' W 075°13'2 3.6
2017-May-17 19:00N 39°54' W 075°12'0 0.0
2017-May-17 18:30N 39°54' W 075°12'0 0.0
2017-May-17 18:00N 39°54' W 075°12'0 0.0
2017-May-17 17:30N 39°54' W 075°12'0 0.0
2017-May-17 17:00N 39°54' W 075°12'0 0.0
2017-May-17 16:30N 39°54' W 075°12'0 0.0
2017-May-17 16:00N 39°54' W 075°12'0 0.0
2017-May-17 15:30N 39°54' W 075°12'0 0.0
2017-May-17 15:00N 39°54' W 075°12'0 0.0
2017-May-17 14:30N 39°54' W 075°12'0 0.0
2017-May-17 13:30N 39°54' W 075°12'0 0.0
2017-May-17 13:00N 39°54' W 075°12'0 0.0
2017-May-17 12:30N 39°54' W 075°12'0 0.0
2017-May-17 12:00N 39°54' W 075°12'0 0.0
2017-May-17 11:30N 39°54' W 075°12'0 0.0
2017-May-17 11:00N 39°54' W 075°12'0 0.0
2017-May-17 10:30N 39°54' W 075°12'0 0.0
2017-May-17 10:00N 39°54' W 075°12'0 0.0
2017-May-17 09:30N 39°54' W 075°12'0 0.0
2017-May-17 09:00N 39°54' W 075°12'0 0.0
2017-May-17 08:30N 39°54' W 075°12'0 0.0
2017-May-17 08:00N 39°54' W 075°12'0 0.0
2017-May-17 07:30N 39°54' W 075°12'0 0.0
2017-May-17 07:00N 39°54' W 075°12'0 0.0
2017-May-17 06:30N 39°54' W 075°12'0 0.0
2017-May-17 06:00N 39°54' W 075°12'0 0.0
2017-May-17 05:30N 39°54' W 075°12'0 0.0
2017-May-17 05:00N 39°54' W 075°12'0 0.0
2017-May-17 04:30N 39°54' W 075°12'0 0.0
2017-May-17 04:00N 39°54' W 075°12'0 0.0
2017-May-17 03:30N 39°54' W 075°12'0 0.0
2017-May-17 03:00N 39°54' W 075°12'0 0.0
2017-May-17 02:30N 39°54' W 075°12'0 0.0
2017-May-17 02:00N 39°54' W 075°12'0 0.0
2017-May-17 01:30N 39°54' W 075°12'0 0.0
2017-May-17 01:00N 39°54' W 075°12'0 0.0
2017-May-17 00:30N 39°54' W 075°12'0 0.0
2017-May-17 00:00N 39°54' W 075°12'0 0.0
2017-May-16 23:30N 39°54' W 075°12'2 4.2
2017-May-16 23:01N 39°52' W 075°13'1 1.6
2017-May-16 22:31N 39°51' W 075°14'0 0.5
2017-May-16 22:00N 39°52' W 075°14'1 1.1
2017-May-16 21:30N 39°51' W 075°15'3 6.3
2017-May-16 21:01N 39°54' W 075°12'0 0.0
2017-May-16 20:30N 39°54' W 075°12'0 0.0
2017-May-16 20:00N 39°54' W 075°12'0 0.0
2017-May-16 19:30N 39°54' W 075°12'0 0.0
2017-May-16 19:00N 39°54' W 075°12'0 0.0
2017-May-16 18:30N 39°54' W 075°12'0 0.0
2017-May-16 18:00N 39°54' W 075°12'0 0.0
2017-May-16 17:30N 39°54' W 075°12'0 0.0
2017-May-16 17:00N 39°54' W 075°12'0 0.0
2017-May-16 16:30N 39°54' W 075°12'0 0.0
2017-May-16 16:01N 39°54' W 075°12'3 5.5
2017-May-16 15:30N 39°53' W 075°08'1 1.4
2017-May-16 15:00N 39°54' W 075°08'0 0.1
2017-May-16 14:01N 39°54' W 075°08'0 0.0
2017-May-16 13:31N 39°54' W 075°08'0 0.0
2017-May-16 13:01N 39°54' W 075°08'0 0.0
2017-May-16 12:31N 39°54' W 075°08'0 0.0
2017-May-16 12:00N 39°54' W 075°08'0 0.0
2017-May-16 11:31N 39°54' W 075°08'0 0.5
2017-May-16 11:01N 39°54' W 075°08'2 3.3
2017-May-16 10:31N 39°53' W 075°09'2 3.1
2017-May-16 10:01N 39°54' W 075°08'0 0.0
2017-May-16 09:31N 39°54' W 075°08'4 7.2
2017-May-16 09:01N 39°53' W 075°12'4 8.3
2017-May-16 08:31N 39°51' W 075°17'3 5.7
2017-May-16 08:00N 39°51' W 075°20'0 0.0
2017-May-16 07:30N 39°51' W 075°20'1 2.4
2017-May-16 07:01N 39°50' W 075°21'1 2.0
2017-May-16 06:31N 39°51' W 075°20'2 4.5
2017-May-16 06:01N 39°51' W 075°18'4 8.0
2017-May-16 05:30N 39°52' W 075°13'1 3.0
2017-May-16 05:00N 39°54' W 075°12'0 0.0
2017-May-16 04:30N 39°54' W 075°12'0 0.0
2017-May-16 04:00N 39°54' W 075°12'0 0.0
2017-May-16 03:30N 39°54' W 075°12'0 0.0
2017-May-16 03:00N 39°54' W 075°12'0 0.0
2017-May-16 02:30N 39°54' W 075°12'0 0.0
2017-May-16 02:00N 39°54' W 075°12'0 0.0
2017-May-16 01:30N 39°54' W 075°12'0 0.0
2017-May-16 01:00N 39°54' W 075°12'0 0.0
2017-May-16 00:30N 39°54' W 075°12'0 0.0
2017-May-16 00:00N 39°54' W 075°12'0 0.0
2017-May-15 23:30N 39°54' W 075°12'0 0.0
2017-May-15 23:00N 39°54' W 075°12'0 0.0
2017-May-15 22:30N 39°54' W 075°12'0 0.0
2017-May-15 22:00N 39°54' W 075°12'0 0.0
2017-May-15 21:30N 39°54' W 075°12'0 0.0
2017-May-15 21:00N 39°54' W 075°12'0 0.0
2017-May-15 20:30N 39°54' W 075°12'0 0.0
2017-May-15 20:00N 39°54' W 075°12'0 0.0
2017-May-15 19:30N 39°54' W 075°12'0 0.0
2017-May-15 19:00N 39°54' W 075°12'0 0.0
2017-May-15 18:30N 39°54' W 075°12'0 0.0
2017-May-15 18:00N 39°54' W 075°12'0 0.0
2017-May-15 17:30N 39°54' W 075°12'0 0.0
2017-May-15 17:00N 39°54' W 075°12'0 0.0
2017-May-15 16:30N 39°54' W 075°12'0 0.0
2017-May-15 16:00N 39°54' W 075°12'0 0.0
2017-May-15 15:30N 39°54' W 075°12'0 0.0
2017-May-15 15:00N 39°54' W 075°12'0 0.0
2017-May-15 14:00N 39°54' W 075°12'0 0.0
2017-May-15 13:30N 39°54' W 075°12'0 0.0
2017-May-15 13:00N 39°54' W 075°12'0 0.0
2017-May-15 12:30N 39°54' W 075°12'0 0.5
2017-May-15 12:00N 39°54' W 075°12'0 0.0
2017-May-15 11:30N 39°54' W 075°12'3 5.4
2017-May-15 11:00N 39°54' W 075°08'0 0.1
2017-May-15 10:30N 39°54' W 075°08'2 4.2
2017-May-15 10:00N 39°53' W 075°10'1 2.4
2017-May-15 09:30N 39°53' W 075°09'0 0.8
2017-May-15 09:00N 39°53' W 075°08'3 5.3
2017-May-15 08:30N 39°53' W 075°12'611.1
2017-May-15 08:00N 39°51' W 075°19'510.8
2017-May-15 07:30N 39°48' W 075°25'0 0.6
2017-May-15 07:00N 39°48' W 075°25'0 0.3
2017-May-15 06:30N 39°48' W 075°25'2 3.1
2017-May-15 06:00N 39°47' W 075°27'2 3.2
2017-May-15 05:30N 39°48' W 075°25'0 0.0
2017-May-15 05:00N 39°48' W 075°25'1 1.9
2017-May-15 04:30N 39°49' W 075°24'4 8.3
2017-May-15 04:00N 39°51' W 075°19'3 6.7
2017-May-15 03:30N 39°51' W 075°15'0 0.1
2017-May-15 03:00N 39°51' W 075°15'1 1.4
2017-May-15 02:30N 39°51' W 075°16'2 4.0
2017-May-15 02:00N 39°51' W 075°19'2 4.5
2017-May-15 01:30N 39°50' W 075°21'1 2.8
2017-May-15 01:01N 39°50' W 075°23'0 0.0
2017-May-15 00:30N 39°50' W 075°23'0 0.0
2017-May-15 00:01N 39°50' W 075°23'0 0.0
2017-May-14 23:30N 39°50' W 075°23'0 0.0
2017-May-14 23:00N 39°50' W 075°23'0 0.0
2017-May-14 22:31N 39°50' W 075°23'0 0.0
2017-May-14 22:01N 39°50' W 075°23'0 0.0
2017-May-14 21:31N 39°50' W 075°23'0 0.0
2017-May-14 21:01N 39°50' W 075°23'0 0.0
2017-May-14 20:31N 39°50' W 075°23'1 3.0
2017-May-14 20:00N 39°49' W 075°24'0 0.0
2017-May-14 19:31N 39°49' W 075°24'0 0.0
2017-May-14 19:00N 39°49' W 075°24'0 0.5
2017-May-14 18:30N 39°49' W 075°24'1 1.5
2017-May-14 18:01N 39°48' W 075°25'4 7.8
2017-May-14 17:31N 39°51' W 075°21'4 8.8
2017-May-14 17:01N 39°51' W 075°15'4 7.3
2017-May-14 16:30N 39°54' W 075°12'0 0.0
2017-May-14 16:01N 39°54' W 075°12'0 0.0
2017-May-14 15:31N 39°54' W 075°12'0 0.0
2017-May-14 15:01N 39°54' W 075°12'0 0.0
2017-May-14 14:31N 39°54' W 075°12'0 0.0
2017-May-14 13:30N 39°54' W 075°12'0 0.0
2017-May-14 13:00N 39°54' W 075°12'0 0.0
2017-May-14 12:31N 39°54' W 075°12'0 0.0
2017-May-14 12:01N 39°54' W 075°12'0 0.0
2017-May-14 11:31N 39°54' W 075°12'0 0.0
2017-May-14 11:00N 39°54' W 075°12'0 0.0
2017-May-14 10:31N 39°54' W 075°12'0 0.0
2017-May-14 10:01N 39°54' W 075°12'0 0.0
2017-May-14 09:31N 39°54' W 075°12'0 1.0
2017-May-14 09:00N 39°53' W 075°12'3 5.8
2017-May-14 08:30N 39°54' W 075°08'0 0.3
2017-May-14 08:00N 39°54' W 075°08'1 2.9
2017-May-14 07:30N 39°53' W 075°09'4 7.5
2017-May-14 07:00N 39°51' W 075°14'3 5.2
2017-May-14 06:30N 39°53' W 075°12'0 0.6
2017-May-14 06:01N 39°54' W 075°12'0 0.0
2017-May-14 05:30N 39°54' W 075°12'0 0.0
2017-May-14 05:01N 39°54' W 075°12'0 0.0
2017-May-14 04:30N 39°54' W 075°12'0 0.0
2017-May-14 04:01N 39°54' W 075°12'0 0.0
2017-May-14 03:30N 39°54' W 075°12'0 0.0
2017-May-14 03:01N 39°54' W 075°12'0 0.0
2017-May-14 02:30N 39°54' W 075°12'0 0.0
2017-May-14 02:00N 39°54' W 075°12'3 5.6
2017-May-14 01:30N 39°54' W 075°08'0 0.3
2017-May-14 01:01N 39°54' W 075°08'3 5.9
2017-May-14 00:31N 39°53' W 075°12'1 1.3
2017-May-14 00:01N 39°54' W 075°12'0 0.0
2017-May-13 23:31N 39°54' W 075°12'0 0.0
2017-May-13 23:01N 39°54' W 075°12'0 0.0
2017-May-13 22:31N 39°54' W 075°12'0 0.0
2017-May-13 22:01N 39°54' W 075°12'0 0.0
2017-May-13 21:30N 39°54' W 075°12'0 0.0
2017-May-13 21:01N 39°54' W 075°12'0 0.0
2017-May-13 20:31N 39°54' W 075°12'0 0.0
2017-May-13 20:01N 39°54' W 075°12'0 0.0
2017-May-13 19:31N 39°54' W 075°12'0 0.0
2017-May-13 19:00N 39°54' W 075°12'0 0.0
2017-May-13 18:31N 39°54' W 075°12'0 0.0
2017-May-13 18:01N 39°54' W 075°12'0 0.0
2017-May-13 17:31N 39°54' W 075°12'0 0.0
2017-May-13 17:01N 39°54' W 075°12'  

Dump ship's entire track history